createdAt,value
2017-09-25T00:00:56.673Z,32.67
2017-09-25T00:03:25.006Z,32.70
2017-09-25T00:05:53.286Z,27.43
2017-09-25T00:08:21.657Z,32.93
2017-09-25T00:10:49.943Z,32.13
2017-09-25T00:13:19.001Z,27.33
2017-09-25T00:15:48.121Z,27.93
2017-09-25T00:18:16.500Z,31.97
2017-09-25T00:20:44.781Z,29.13
2017-09-25T00:23:13.101Z,29.30
2017-09-25T00:25:41.434Z,28.30
2017-09-25T00:28:09.842Z,27.83
2017-09-25T00:30:39.006Z,30.23
2017-09-25T00:33:07.286Z,29.77
2017-09-25T00:35:35.671Z,27.97
2017-09-25T00:38:03.951Z,29.40
2017-09-25T00:40:32.275Z,34.83
2017-09-25T00:43:00.609Z,32.67
2017-09-25T00:45:30.392Z,34.67
2017-09-25T00:47:58.694Z,33.50
2017-09-25T00:50:26.979Z,31.07
2017-09-25T00:53:07.230Z,29.90
2017-09-25T00:55:47.322Z,33.60
2017-09-25T00:58:16.400Z,28.80
2017-09-25T01:00:56.574Z,30.67
2017-09-25T01:06:26.830Z,30.47
2017-09-25T01:08:55.154Z,34.33
2017-09-25T01:11:23.414Z,30.07
2017-09-25T01:13:51.712Z,33.23
2017-09-25T01:16:20.016Z,30.47
2017-09-25T01:18:49.057Z,28.07
2017-09-25T01:21:17.347Z,32.67
2017-09-25T01:23:45.642Z,30.97
2017-09-25T01:26:13.915Z,34.37
2017-09-25T01:28:42.212Z,27.43
2017-09-25T01:31:10.507Z,31.90
2017-09-25T01:33:38.868Z,31.97
2017-09-25T01:36:07.247Z,31.53
2017-09-25T01:38:36.300Z,34.50
2017-09-25T01:41:04.585Z,31.37
2017-09-25T01:43:32.861Z,34.57
2017-09-25T01:46:01.244Z,29.93
2017-09-25T01:48:29.517Z,33.33
2017-09-25T01:50:57.798Z,37.27
2017-09-25T01:53:26.073Z,38.67
2017-09-25T01:55:54.345Z,33.10
2017-09-25T01:58:22.747Z,31.90
2017-09-25T02:00:51.028Z,29.90
2017-09-25T02:03:19.316Z,31.73
2017-09-25T02:05:47.601Z,34.23
2017-09-25T02:08:16.675Z,36.57
2017-09-25T02:10:44.966Z,35.27
2017-09-25T02:13:13.245Z,33.87
2017-09-25T02:15:41.608Z,37.10
2017-09-25T02:18:09.900Z,38.70
2017-09-25T02:20:38.262Z,36.13
2017-09-25T02:23:06.581Z,35.63
2017-09-25T02:25:34.861Z,28.83
2017-09-25T02:28:03.140Z,36.13
2017-09-25T02:30:31.446Z,30.83
2017-09-25T02:32:59.765Z,31.47
2017-09-25T02:35:28.143Z,34.27
2017-09-25T02:37:56.512Z,33.63
2017-09-25T02:40:24.802Z,30.30
2017-09-25T02:42:53.108Z,28.03
2017-09-25T02:45:21.444Z,38.20
2017-09-25T02:47:49.827Z,31.37
2017-09-25T02:50:18.105Z,32.23
2017-09-25T02:52:46.366Z,31.87
2017-09-25T02:55:14.667Z,34.37
2017-09-25T02:57:43.021Z,31.40
2017-09-25T03:00:11.328Z,35.53
2017-09-25T03:02:39.620Z,35.33
2017-09-25T03:05:08.780Z,33.30
2017-09-25T03:07:37.177Z,33.87
2017-09-25T03:10:05.449Z,31.40
2017-09-25T03:12:33.761Z,35.37
2017-09-25T03:15:02.828Z,32.20
2017-09-25T03:17:32.613Z,36.37
2017-09-25T03:20:01.010Z,32.20
2017-09-25T03:22:29.296Z,29.43
2017-09-25T03:24:57.677Z,32.70
2017-09-25T03:27:25.940Z,29.90
2017-09-25T03:29:54.221Z,32.77
2017-09-25T03:32:22.608Z,29.77
2017-09-25T03:34:50.876Z,28.50
2017-09-25T03:37:19.268Z,36.93
2017-09-25T03:39:47.643Z,28.10
2017-09-25T03:42:16.432Z,31.20
2017-09-25T03:44:44.724Z,31.73
2017-09-25T03:47:12.999Z,34.47
2017-09-25T03:49:42.083Z,30.37
2017-09-25T03:52:10.374Z,31.57
2017-09-25T03:54:39.400Z,34.63
2017-09-25T03:57:07.718Z,33.13
2017-09-25T03:59:36.112Z,30.03
2017-09-25T04:02:04.430Z,27.13
2017-09-25T04:04:32.736Z,31.67
2017-09-25T04:07:01.046Z,31.10
2017-09-25T04:09:29.332Z,32.23
2017-09-25T04:11:57.600Z,32.40
2017-09-25T04:14:25.908Z,32.60
2017-09-25T04:16:54.228Z,29.33
2017-09-25T04:19:22.712Z,32.43
2017-09-25T04:21:50.993Z,33.00
2017-09-25T04:24:19.276Z,31.30
2017-09-25T04:26:47.659Z,29.17
2017-09-25T04:29:16.697Z,31.93
2017-09-25T04:31:44.971Z,29.43
2017-09-25T04:34:13.293Z,33.40
2017-09-25T04:36:41.568Z,29.77
2017-09-25T04:39:09.893Z,32.07
2017-09-25T04:41:38.956Z,32.40
2017-09-25T04:44:07.226Z,29.00
2017-09-25T04:46:35.525Z,29.40
2017-09-25T04:49:04.572Z,31.60
2017-09-25T04:51:32.895Z,32.13
2017-09-25T04:54:01.249Z,29.97
2017-09-25T04:56:29.632Z,26.50
2017-09-25T04:58:58.023Z,33.63
2017-09-25T05:01:26.406Z,29.73
2017-09-25T05:03:54.717Z,30.20
2017-09-25T05:06:23.050Z,24.30
2017-09-25T05:08:51.329Z,30.87
2017-09-25T05:11:19.625Z,27.47
2017-09-25T05:13:47.988Z,30.57
2017-09-25T05:16:16.315Z,29.90
2017-09-25T05:18:44.588Z,26.20
2017-09-25T05:21:12.868Z,27.67
2017-09-25T05:23:41.168Z,27.13
2017-09-25T05:26:09.454Z,32.70
2017-09-25T05:28:37.757Z,31.57
2017-09-25T05:31:06.065Z,33.30
2017-09-25T05:33:35.128Z,27.20
2017-09-25T05:36:03.400Z,31.13
2017-09-25T05:38:31.677Z,27.87
2017-09-25T05:41:00.276Z,30.60
2017-09-25T05:43:28.537Z,32.43
2017-09-25T05:45:56.861Z,30.60
2017-09-25T05:48:25.158Z,33.50
2017-09-25T05:50:53.429Z,28.53
2017-09-25T05:53:21.745Z,31.83
2017-09-25T05:55:51.532Z,32.83
2017-09-25T05:58:19.809Z,31.00
2017-09-25T06:00:48.136Z,32.27
2017-09-25T06:03:17.177Z,33.67
2017-09-25T06:05:45.500Z,34.97
2017-09-25T06:08:13.864Z,30.13
2017-09-25T06:10:42.142Z,32.60
2017-09-25T06:13:10.523Z,33.73
2017-09-25T06:15:38.779Z,30.70
2017-09-25T06:18:07.137Z,28.70
2017-09-25T06:20:35.413Z,32.67
2017-09-25T06:23:03.693Z,28.20
2017-09-25T06:25:31.981Z,54.80
2017-09-25T06:28:00.265Z,29.07
2017-09-25T06:30:28.581Z,31.87
2017-09-25T06:32:56.945Z,28.73
2017-09-25T06:35:25.223Z,31.10
2017-09-25T06:37:53.518Z,29.20
2017-09-25T06:40:22.589Z,30.20
2017-09-25T06:42:50.899Z,30.17
2017-09-25T06:45:19.971Z,34.87
2017-09-25T06:47:48.359Z,28.77
2017-09-25T06:50:16.735Z,31.13
2017-09-25T06:52:45.123Z,30.40
2017-09-25T06:55:13.433Z,30.43
2017-09-25T06:57:41.752Z,33.50
2017-09-25T07:00:10.032Z,32.80
2017-09-25T07:02:38.331Z,34.97
2017-09-25T07:05:06.596Z,31.07
2017-09-25T07:07:35.680Z,34.03
2017-09-25T07:10:03.963Z,29.53
2017-09-25T07:12:32.338Z,34.50
2017-09-25T07:15:00.621Z,33.87
2017-09-25T07:17:28.889Z,31.93
2017-09-25T07:19:57.993Z,32.80
2017-09-25T07:22:26.265Z,31.57
2017-09-25T07:24:54.658Z,35.87
2017-09-25T07:27:23.030Z,32.87
2017-09-25T07:29:51.319Z,33.33
2017-09-25T07:32:19.702Z,31.83
2017-09-25T07:34:48.749Z,30.20
2017-09-25T07:37:17.053Z,33.60
2017-09-25T07:39:45.432Z,25.50
2017-09-25T07:42:13.827Z,29.50
2017-09-25T07:44:42.094Z,32.73
2017-09-25T07:47:10.569Z,28.80
2017-09-25T07:49:38.865Z,26.63
2017-09-25T07:52:07.172Z,35.50
2017-09-25T07:54:36.321Z,31.50
2017-09-25T07:57:04.596Z,28.13
2017-09-25T07:59:32.900Z,27.27
2017-09-25T08:02:01.981Z,30.60
2017-09-25T08:04:30.241Z,29.93
2017-09-25T08:06:58.626Z,34.77
2017-09-25T08:09:26.902Z,33.97
2017-09-25T08:11:55.201Z,28.77
2017-09-25T08:14:23.561Z,60.93
2017-09-25T08:16:51.885Z,29.20
2017-09-25T08:19:20.941Z,31.30
2017-09-25T08:21:49.321Z,33.23
2017-09-25T08:24:17.612Z,29.83
2017-09-25T08:26:45.886Z,30.57
2017-09-25T08:29:14.264Z,27.17
2017-09-25T08:31:42.629Z,26.30
2017-09-25T08:34:11.021Z,29.60
2017-09-25T08:36:39.296Z,29.20
2017-09-25T08:39:07.571Z,26.90
2017-09-25T08:41:35.861Z,29.57
2017-09-25T08:44:04.900Z,24.37
2017-09-25T08:46:33.209Z,27.83
2017-09-25T08:49:01.484Z,26.80
2017-09-25T08:51:29.866Z,25.97
2017-09-25T08:53:58.144Z,24.87
2017-09-25T08:56:26.533Z,28.63
2017-09-25T08:58:54.812Z,22.33
2017-09-25T09:01:24.602Z,25.40
2017-09-25T09:03:52.903Z,23.37
2017-09-25T09:06:21.269Z,24.27
2017-09-25T09:08:49.675Z,27.80
2017-09-25T09:11:17.980Z,23.93
2017-09-25T09:13:46.256Z,24.97
2017-09-25T09:16:14.553Z,23.23
2017-09-25T09:18:42.833Z,22.00
2017-09-25T09:21:11.234Z,26.03
2017-09-25T09:23:39.507Z,24.03
2017-09-25T09:26:07.781Z,25.40
2017-09-25T09:28:36.071Z,24.90
2017-09-25T09:31:04.446Z,21.50
2017-09-25T09:33:32.762Z,25.70
2017-09-25T09:36:01.823Z,32.10
2017-09-25T09:38:30.098Z,23.57
2017-09-25T09:40:58.481Z,21.70
2017-09-25T09:43:26.740Z,23.30
2017-09-25T09:45:55.132Z,25.90
2017-09-25T09:48:23.399Z,24.10
2017-09-25T09:50:51.685Z,22.93
2017-09-25T09:53:20.067Z,29.33
2017-09-25T09:55:48.347Z,23.53
2017-09-25T09:58:16.664Z,24.07
2017-09-25T10:00:44.955Z,24.60
2017-09-25T10:03:13.270Z,22.93
2017-09-25T10:05:41.561Z,30.13
2017-09-25T10:08:09.851Z,24.57
2017-09-25T10:10:38.217Z,26.57
2017-09-25T10:13:06.589Z,23.90
2017-09-25T10:15:34.934Z,25.10
2017-09-25T10:18:03.189Z,25.90
2017-09-25T10:20:31.490Z,29.23
2017-09-25T10:22:59.777Z,31.13
2017-09-25T10:25:28.387Z,31.27
2017-09-25T10:27:56.816Z,29.10
2017-09-25T10:30:25.162Z,29.57
2017-09-25T10:32:53.472Z,35.30
2017-09-25T10:35:21.746Z,33.50
2017-09-25T10:37:50.089Z,31.73
2017-09-25T10:40:18.405Z,31.80
2017-09-25T10:42:46.749Z,38.73
2017-09-25T10:45:15.073Z,37.10
2017-09-25T10:47:43.386Z,32.30
2017-09-25T10:50:11.652Z,33.50
2017-09-25T10:52:40.042Z,36.70
2017-09-25T10:55:08.439Z,33.43
2017-09-25T10:57:36.757Z,33.77
2017-09-25T11:00:05.078Z,37.40
2017-09-25T11:02:33.474Z,37.50
2017-09-25T11:05:01.858Z,31.50
2017-09-25T11:07:30.138Z,34.93
2017-09-25T11:09:58.449Z,33.20
2017-09-25T11:12:26.721Z,35.03
2017-09-25T11:14:55.062Z,35.93
2017-09-25T11:17:23.336Z,31.70
2017-09-25T11:19:51.616Z,31.87
2017-09-25T11:22:19.942Z,31.23
2017-09-25T11:24:48.210Z,27.80
2017-09-25T11:27:16.550Z,31.67
2017-09-25T11:29:44.824Z,27.40
2017-09-25T11:32:13.163Z,26.83
2017-09-25T11:34:41.476Z,26.00
2017-09-25T11:37:09.778Z,27.40
2017-09-25T11:39:38.841Z,27.50
2017-09-25T11:42:07.121Z,22.70
2017-09-25T11:44:35.506Z,25.60
2017-09-25T11:47:03.793Z,21.90
2017-09-25T11:49:32.161Z,22.43
2017-09-25T11:52:00.439Z,19.30
2017-09-25T11:54:29.491Z,20.57
2017-09-25T11:56:57.793Z,21.10
2017-09-25T11:59:26.069Z,18.63
2017-09-25T12:01:54.481Z,18.23
2017-09-25T12:04:22.861Z,20.53
2017-09-25T12:06:51.166Z,18.03
2017-09-25T12:09:19.443Z,19.73
2017-09-25T12:11:47.736Z,17.20
2017-09-25T12:14:16.058Z,17.90
2017-09-25T12:16:44.339Z,16.47
2017-09-25T12:19:12.653Z,16.83
2017-09-25T12:21:41.681Z,19.10
2017-09-25T12:24:10.094Z,19.33
2017-09-25T12:26:38.473Z,22.57
2017-09-25T12:29:06.748Z,17.60
2017-09-25T12:31:35.043Z,23.30
2017-09-25T12:34:04.113Z,20.13
2017-09-25T12:36:32.407Z,16.70
2017-09-25T12:39:00.682Z,16.37
2017-09-25T12:41:29.778Z,16.97
2017-09-25T12:43:58.056Z,18.07
2017-09-25T12:46:26.332Z,17.23
2017-09-25T12:48:54.805Z,17.00
2017-09-25T12:51:23.100Z,18.83
2017-09-25T12:53:51.386Z,15.57
2017-09-25T12:56:20.451Z,15.90
2017-09-25T12:58:48.754Z,15.73
2017-09-25T13:01:17.927Z,13.63
2017-09-25T13:03:46.205Z,16.10
2017-09-25T13:06:14.570Z,14.67
2017-09-25T13:08:42.877Z,14.13
2017-09-25T13:11:11.249Z,12.40
2017-09-25T13:13:39.629Z,13.10
2017-09-25T13:16:07.993Z,13.17
2017-09-25T13:18:36.286Z,15.07
2017-09-25T13:21:04.649Z,14.97
2017-09-25T13:23:33.044Z,13.03
2017-09-25T13:26:01.414Z,13.60
2017-09-25T13:28:29.738Z,12.57
2017-09-25T13:30:58.098Z,13.97
2017-09-25T13:33:27.138Z,13.63
2017-09-25T13:35:55.443Z,14.57
2017-09-25T13:38:23.716Z,13.00
2017-09-25T13:40:52.028Z,14.00
2017-09-25T13:43:21.090Z,12.67
2017-09-25T13:45:49.393Z,12.90
2017-09-25T13:48:18.441Z,13.43
2017-09-25T13:50:46.720Z,13.80
2017-09-25T13:53:15.029Z,11.77
2017-09-25T13:55:43.375Z,14.40
2017-09-25T13:58:11.669Z,13.90
2017-09-25T14:03:13.594Z,13.47
2017-09-25T14:05:41.930Z,12.87
2017-09-25T14:08:10.255Z,11.80
2017-09-25T14:10:39.287Z,16.87
2017-09-25T14:13:07.565Z,15.90
2017-09-25T14:15:35.866Z,14.47
2017-09-25T14:18:04.156Z,13.27
2017-09-25T14:20:33.229Z,13.30
2017-09-25T14:23:01.489Z,14.30
2017-09-25T14:25:29.812Z,11.00
2017-09-25T14:27:58.861Z,11.23
2017-09-25T14:30:27.139Z,10.10
2017-09-25T14:32:55.437Z,11.30
2017-09-25T14:35:23.721Z,11.40
2017-09-25T14:37:52.006Z,8.50
2017-09-25T14:40:20.281Z,9.97
2017-09-25T14:42:48.605Z,9.40
2017-09-25T14:45:16.943Z,9.57
2017-09-25T14:47:45.217Z,9.03
2017-09-25T14:50:13.492Z,8.93
2017-09-25T14:52:41.762Z,8.30
2017-09-25T14:55:10.050Z,8.53
2017-09-25T14:57:38.324Z,8.50
2017-09-25T15:00:06.651Z,9.80
2017-09-25T15:02:34.917Z,9.77
2017-09-25T15:05:03.185Z,7.60
2017-09-25T15:07:31.476Z,7.20
2017-09-25T15:09:59.765Z,8.37
2017-09-25T15:12:28.050Z,9.43
2017-09-25T15:14:56.308Z,9.40
2017-09-25T15:17:24.624Z,7.67
2017-09-25T15:19:52.904Z,9.03
2017-09-25T15:22:21.195Z,8.10
2017-09-25T15:24:49.468Z,9.87
2017-09-25T15:27:17.729Z,9.40
2017-09-25T15:29:46.105Z,7.50
2017-09-25T15:32:14.361Z,8.00
2017-09-25T15:34:42.669Z,10.73
2017-09-25T15:37:10.945Z,10.10
2017-09-25T15:39:39.221Z,10.07
2017-09-25T15:42:07.500Z,10.43
2017-09-25T15:44:35.777Z,10.73
2017-09-25T15:47:04.062Z,9.47
2017-09-25T15:49:32.429Z,10.83
2017-09-25T15:52:00.819Z,9.87
2017-09-25T15:54:29.084Z,13.67
2017-09-25T15:56:57.358Z,11.10
2017-09-25T15:59:25.650Z,10.60
2017-09-25T16:01:53.918Z,10.93
2017-09-25T16:04:22.202Z,9.70
2017-09-25T16:06:50.571Z,9.80
2017-09-25T16:09:18.885Z,10.20
2017-09-25T16:11:47.945Z,10.20
2017-09-25T16:14:16.224Z,10.27
2017-09-25T16:16:44.509Z,9.50
2017-09-25T16:19:12.770Z,9.40
2017-09-25T16:21:41.073Z,11.20
2017-09-25T16:24:09.351Z,12.80
2017-09-25T16:26:37.648Z,11.77
2017-09-25T16:29:06.717Z,10.93
2017-09-25T16:31:35.080Z,11.43
2017-09-25T16:34:03.458Z,12.67
2017-09-25T16:36:31.753Z,16.57
2017-09-25T16:39:00.045Z,10.73
2017-09-25T16:41:29.108Z,10.00
2017-09-25T16:43:57.436Z,10.50
2017-09-25T16:46:26.481Z,11.27
2017-09-25T16:48:54.863Z,15.90
2017-09-25T16:51:23.252Z,11.70
2017-09-25T16:53:51.517Z,12.67
2017-09-25T16:56:19.930Z,16.40
2017-09-25T16:58:48.203Z,12.90
2017-09-25T17:01:16.561Z,12.73
2017-09-25T17:03:44.840Z,12.63
2017-09-25T17:06:14.965Z,13.63
2017-09-25T17:08:44.082Z,11.27
2017-09-25T17:11:13.152Z,13.20
2017-09-25T17:13:41.525Z,15.30
2017-09-25T17:16:09.800Z,12.00
2017-09-25T17:18:38.127Z,13.80
2017-09-25T17:21:06.417Z,14.23
2017-09-25T17:23:34.748Z,13.60
2017-09-25T17:26:03.056Z,14.70
2017-09-25T17:28:32.127Z,14.60
2017-09-25T17:31:00.500Z,13.03
2017-09-25T17:33:29.547Z,18.80
2017-09-25T17:35:57.861Z,13.50
2017-09-25T17:38:26.341Z,16.47
2017-09-25T17:40:54.613Z,14.90
2017-09-25T17:43:22.910Z,16.03
2017-09-25T17:45:51.192Z,18.97
2017-09-25T17:48:19.560Z,14.10
2017-09-25T17:50:47.838Z,18.23
2017-09-25T17:53:16.161Z,14.33
2017-09-25T17:55:44.437Z,13.83
2017-09-25T17:58:13.589Z,13.03
2017-09-25T18:00:41.883Z,17.40
2017-09-25T18:03:10.236Z,17.23
2017-09-25T18:05:38.617Z,15.47
2017-09-25T18:08:07.007Z,17.80
2017-09-25T18:10:35.330Z,18.00
2017-09-25T18:13:03.646Z,15.27
2017-09-25T18:15:31.918Z,17.23
2017-09-25T18:18:00.321Z,14.30
2017-09-25T18:20:28.688Z,16.57
2017-09-25T18:22:56.976Z,13.43
2017-09-25T18:25:25.349Z,15.17
2017-09-25T18:27:53.656Z,15.70
2017-09-25T18:30:22.717Z,15.60
2017-09-25T18:32:51.005Z,15.03
2017-09-25T18:35:19.372Z,15.57
2017-09-25T18:37:47.667Z,14.93
2017-09-25T18:40:16.043Z,18.07
2017-09-25T18:42:44.422Z,12.83
2017-09-25T18:45:12.739Z,14.93
2017-09-25T18:47:41.081Z,15.33
2017-09-25T18:50:09.349Z,16.07
2017-09-25T18:52:37.726Z,16.00
2017-09-25T18:55:05.998Z,14.97
2017-09-25T18:57:34.385Z,17.60
2017-09-25T19:00:02.661Z,15.33
2017-09-25T19:02:30.999Z,15.43
2017-09-25T19:04:59.317Z,18.50
2017-09-25T19:07:27.694Z,12.73
2017-09-25T19:09:55.980Z,15.10
2017-09-25T19:12:24.260Z,15.50
2017-09-25T19:14:52.624Z,16.20
2017-09-25T19:17:21.001Z,17.93
2017-09-25T19:19:49.312Z,17.13
2017-09-25T19:22:18.357Z,15.33
2017-09-25T19:24:46.630Z,18.33
2017-09-25T19:27:14.929Z,16.83
2017-09-25T19:29:43.216Z,14.00
2017-09-25T19:32:11.503Z,15.30
2017-09-25T19:34:39.769Z,17.43
2017-09-25T19:37:08.142Z,17.00
2017-09-25T19:39:36.426Z,18.93
2017-09-25T19:42:05.518Z,15.17
2017-09-25T19:44:33.814Z,16.07
2017-09-25T19:47:02.082Z,21.00
2017-09-25T19:49:42.177Z,15.53
2017-09-25T19:52:10.668Z,20.40
2017-09-25T19:54:38.985Z,17.17
2017-09-25T19:57:07.696Z,18.00
2017-09-25T19:59:36.424Z,16.47
2017-09-25T20:02:04.690Z,15.27
2017-09-25T20:04:32.970Z,15.10
2017-09-25T20:07:01.254Z,14.57
2017-09-25T20:09:29.533Z,15.80
2017-09-25T20:11:58.427Z,16.33
2017-09-25T20:17:27.691Z,22.00
2017-09-25T20:19:55.958Z,18.13
2017-09-25T20:22:24.246Z,16.50
2017-09-25T20:24:52.629Z,17.47
2017-09-25T20:27:22.482Z,19.60
2017-09-25T20:29:50.764Z,14.93
2017-09-25T20:32:19.072Z,16.80
2017-09-25T20:34:49.148Z,18.93
2017-09-25T20:37:18.261Z,19.90
2017-09-25T20:42:29.043Z,18.77
2017-09-25T20:44:57.333Z,18.53
2017-09-25T20:47:25.614Z,15.47
2017-09-25T20:49:54.008Z,18.27
2017-09-25T20:52:22.306Z,17.53
2017-09-25T20:54:51.367Z,16.60
2017-09-25T20:57:19.662Z,17.60
2017-09-25T20:59:47.946Z,14.30
2017-09-25T21:02:16.255Z,15.67
2017-09-25T21:04:44.599Z,16.50
2017-09-25T21:07:12.987Z,17.87
2017-09-25T21:09:41.257Z,19.77
2017-09-25T21:12:10.353Z,17.30
2017-09-25T21:14:38.712Z,18.20
2017-09-25T21:17:06.984Z,16.40
2017-09-25T21:19:35.294Z,15.80
2017-09-25T21:22:04.344Z,15.87
2017-09-25T21:24:32.645Z,19.57
2017-09-25T21:27:06.511Z,15.40
2017-09-25T21:29:34.849Z,16.83
2017-09-25T21:32:03.881Z,17.23
2017-09-25T21:34:32.197Z,15.97
2017-09-25T21:37:00.581Z,17.43
2017-09-25T21:39:28.954Z,17.10
2017-09-25T21:41:57.254Z,16.50
2017-09-25T21:44:26.322Z,14.87
2017-09-25T21:46:54.661Z,20.67
2017-09-25T21:49:22.977Z,17.20
2017-09-25T21:51:51.362Z,19.60
2017-09-25T21:54:19.737Z,17.27
2017-09-25T21:56:48.138Z,15.87
2017-09-25T21:59:16.429Z,17.10
2017-09-25T22:01:45.490Z,18.47
2017-09-25T22:04:13.871Z,19.17
2017-09-25T22:06:42.165Z,16.07
2017-09-25T22:09:11.260Z,18.77
2017-09-25T22:11:39.568Z,15.90
2017-09-25T22:14:07.836Z,17.90
2017-09-25T22:16:36.141Z,16.77
2017-09-25T22:19:04.416Z,14.93
2017-09-25T22:21:32.871Z,17.97
2017-09-25T22:24:01.922Z,20.23
2017-09-25T22:26:30.201Z,15.40
2017-09-25T22:28:58.598Z,17.10
2017-09-25T22:31:27.778Z,17.97
2017-09-25T22:33:56.055Z,17.40
2017-09-25T22:36:24.776Z,16.50
2017-09-25T22:38:53.859Z,18.80
2017-09-25T22:41:22.126Z,17.63
2017-09-25T22:43:52.201Z,17.57
2017-09-25T22:46:20.530Z,17.13
2017-09-25T22:48:48.799Z,16.17
2017-09-25T22:51:17.100Z,20.40
2017-09-25T22:53:46.142Z,19.63
2017-09-25T22:56:14.454Z,17.30
2017-09-25T22:58:43.493Z,18.17
2017-09-25T23:01:11.914Z,17.53
2017-09-25T23:03:40.990Z,20.13
2017-09-25T23:06:09.262Z,20.20
2017-09-25T23:08:37.557Z,16.47
2017-09-25T23:11:08.189Z,16.83
2017-09-25T23:13:36.566Z,20.33
2017-09-25T23:16:04.843Z,15.83
2017-09-25T23:18:33.149Z,17.87
2017-09-25T23:21:02.190Z,19.10
2017-09-25T23:23:30.460Z,14.90
2017-09-25T23:25:58.773Z,16.00
2017-09-25T23:28:27.048Z,19.43
2017-09-25T23:30:55.342Z,19.93
2017-09-25T23:33:23.612Z,20.77
2017-09-25T23:35:51.986Z,19.90
2017-09-25T23:38:20.281Z,24.20
2017-09-25T23:40:48.644Z,25.20
2017-09-25T23:43:17.721Z,20.87
2017-09-25T23:45:45.992Z,22.20
2017-09-25T23:48:14.287Z,21.50
2017-09-25T23:50:42.660Z,22.70
2017-09-25T23:53:11.132Z,22.23
2017-09-25T23:55:39.416Z,24.87
2017-09-25T23:58:07.720Z,22.37
